createdAt,value
2018-10-18T00:01:32.486Z,51.43
2018-10-18T00:04:01.091Z,56.53
2018-10-18T00:06:29.551Z,52.20
2018-10-18T00:08:58.090Z,54.30
2018-10-18T00:11:26.455Z,60.53
2018-10-18T00:13:54.827Z,53.53
2018-10-18T00:16:23.100Z,57.63
2018-10-18T00:18:51.491Z,49.70
2018-10-18T00:21:19.772Z,55.57
2018-10-18T00:23:48.138Z,54.93
2018-10-18T00:26:16.497Z,57.90
2018-10-18T00:28:44.690Z,53.80
2018-10-18T00:31:13.004Z,56.83
2018-10-18T00:33:41.460Z,57.50
2018-10-18T00:36:09.783Z,54.20
2018-10-18T00:38:37.990Z,54.10
2018-10-18T00:41:06.307Z,59.37
2018-10-18T00:43:34.558Z,63.27
2018-10-18T00:46:02.901Z,53.03
2018-10-18T00:48:31.344Z,60.60
2018-10-18T00:50:59.639Z,53.57
2018-10-18T00:53:27.942Z,60.80
2018-10-18T00:55:56.424Z,49.37
2018-10-18T00:58:24.738Z,54.53
2018-10-18T01:00:52.978Z,59.40
2018-10-18T01:03:21.241Z,54.73
2018-10-18T01:05:49.603Z,56.03
2018-10-18T01:08:17.929Z,55.40
2018-10-18T01:10:46.167Z,48.37
2018-10-18T01:13:14.401Z,56.27
2018-10-18T01:15:42.640Z,52.47
2018-10-18T01:18:11.079Z,53.70
2018-10-18T01:20:39.282Z,50.93
2018-10-18T01:23:08.223Z,56.10
2018-10-18T01:25:36.470Z,56.43
2018-10-18T01:28:04.752Z,52.30
2018-10-18T01:30:33.029Z,49.30
2018-10-18T01:33:01.359Z,47.27
2018-10-18T01:35:30.265Z,49.03
2018-10-18T01:37:58.508Z,52.47
2018-10-18T01:40:26.739Z,57.87
2018-10-18T01:42:55.025Z,52.73
2018-10-18T01:45:23.314Z,52.07
2018-10-18T01:47:51.790Z,50.90
2018-10-18T01:50:20.041Z,52.57
2018-10-18T01:52:48.318Z,48.93
2018-10-18T01:55:16.912Z,48.67
2018-10-18T01:57:45.173Z,54.03
2018-10-18T02:00:13.511Z,52.10
2018-10-18T02:02:41.694Z,53.60
2018-10-18T02:05:09.964Z,50.87
2018-10-18T02:07:38.277Z,51.80
2018-10-18T02:10:06.550Z,54.73
2018-10-18T02:12:35.137Z,54.33
2018-10-18T02:15:03.414Z,52.73
2018-10-18T02:17:31.825Z,57.00
2018-10-18T02:20:06.868Z,56.53
2018-10-18T02:22:35.237Z,58.80
2018-10-18T02:25:03.602Z,59.80
2018-10-18T02:27:31.824Z,60.00
2018-10-18T02:30:00.231Z,56.20
2018-10-18T02:32:28.463Z,63.57
2018-10-18T02:35:03.401Z,60.27
2018-10-18T02:37:32.081Z,69.53
2018-10-18T02:40:00.365Z,70.60
2018-10-18T02:42:28.626Z,84.23
2018-10-18T02:44:56.982Z,81.70
2018-10-18T02:47:25.750Z,95.40
2018-10-18T02:49:54.046Z,101.60
2018-10-18T02:52:22.431Z,95.97
2018-10-18T02:54:50.682Z,104.57
2018-10-18T02:57:18.993Z,108.60
2018-10-18T02:59:47.291Z,103.80
2018-10-18T03:02:15.594Z,117.20
2018-10-18T03:04:43.924Z,111.87
2018-10-18T03:07:12.211Z,111.23
2018-10-18T03:09:40.537Z,106.63
2018-10-18T03:12:08.903Z,113.07
2018-10-18T03:14:37.104Z,112.90
2018-10-18T03:17:05.486Z,118.03
2018-10-18T03:19:33.702Z,116.20
2018-10-18T03:22:01.961Z,125.00
2018-10-18T03:24:30.286Z,112.40
2018-10-18T03:26:58.562Z,116.57
2018-10-18T03:29:33.078Z,108.23
2018-10-18T03:32:01.345Z,110.20
2018-10-18T03:34:29.583Z,93.10
2018-10-18T03:36:57.859Z,102.77
2018-10-18T03:39:26.062Z,97.47
2018-10-18T03:41:54.312Z,102.00
2018-10-18T03:44:22.557Z,97.63
2018-10-18T03:46:50.797Z,96.77
2018-10-18T03:49:19.066Z,97.80
2018-10-18T03:51:47.665Z,95.47
2018-10-18T03:54:16.029Z,94.07
2018-10-18T03:56:44.222Z,99.50
2018-10-18T03:59:12.454Z,90.07
2018-10-18T04:01:40.720Z,89.43
2018-10-18T04:04:08.934Z,88.00
2018-10-18T04:06:37.168Z,85.57
2018-10-18T04:09:07.414Z,95.07
2018-10-18T04:11:35.658Z,87.93
2018-10-18T04:14:03.974Z,92.37
2018-10-18T04:16:32.205Z,89.07
2018-10-18T04:19:00.401Z,98.90
2018-10-18T04:21:28.689Z,90.50
2018-10-18T04:23:57.109Z,83.70
2018-10-18T04:26:25.326Z,87.60
2018-10-18T04:28:53.599Z,91.00
2018-10-18T04:31:21.871Z,84.67
2018-10-18T04:33:50.181Z,72.97
2018-10-18T04:36:18.535Z,87.57
2018-10-18T04:38:46.726Z,85.13
2018-10-18T04:41:14.997Z,88.27
2018-10-18T04:43:43.360Z,81.60
2018-10-18T04:46:11.664Z,88.80
2018-10-18T04:48:39.983Z,77.07
2018-10-18T04:51:08.211Z,82.77
2018-10-18T04:53:36.453Z,78.30
2018-10-18T04:56:04.712Z,74.17
2018-10-18T04:58:33.018Z,77.60
2018-10-18T05:01:01.383Z,74.33
2018-10-18T05:03:29.906Z,75.93
2018-10-18T05:05:59.830Z,72.53
2018-10-18T05:08:28.562Z,68.43
2018-10-18T05:10:56.863Z,69.27
2018-10-18T05:13:25.419Z,70.90
2018-10-18T05:15:53.914Z,64.83
2018-10-18T05:18:22.914Z,66.70
2018-10-18T05:20:51.191Z,67.67
2018-10-18T05:23:19.470Z,81.57
2018-10-18T05:25:50.392Z,61.17
2018-10-18T05:28:18.738Z,64.67
2018-10-18T05:30:47.279Z,55.80
2018-10-18T05:33:16.286Z,58.27
2018-10-18T05:35:44.763Z,72.57
2018-10-18T05:38:13.018Z,60.23
2018-10-18T05:40:41.301Z,59.47
2018-10-18T05:43:09.622Z,59.33
2018-10-18T05:45:38.081Z,60.00
2018-10-18T05:48:06.372Z,62.60
2018-10-18T05:50:34.670Z,59.40
2018-10-18T05:53:03.224Z,67.27
2018-10-18T05:55:31.418Z,60.27
2018-10-18T05:57:59.625Z,56.50
2018-10-18T06:00:27.880Z,57.97
2018-10-18T06:02:56.095Z,65.73
2018-10-18T06:05:24.937Z,58.00
2018-10-18T06:07:53.655Z,54.00
2018-10-18T06:10:33.333Z,64.53
2018-10-18T06:13:02.038Z,57.13
2018-10-18T06:15:30.542Z,54.37
2018-10-18T06:18:01.872Z,52.93
2018-10-18T06:20:30.128Z,53.17
2018-10-18T06:22:58.475Z,51.63
2018-10-18T06:25:26.609Z,55.33
2018-10-18T06:27:54.863Z,50.97
2018-10-18T06:30:23.319Z,51.17
2018-10-18T06:32:51.546Z,50.13
2018-10-18T06:35:19.778Z,53.33
2018-10-18T06:37:47.993Z,53.93
2018-10-18T06:40:17.608Z,54.13
2018-10-18T06:42:45.959Z,48.57
2018-10-18T06:45:15.463Z,55.20
2018-10-18T06:47:44.456Z,53.30
2018-10-18T06:50:14.417Z,45.63
2018-10-18T06:52:42.696Z,57.17
2018-10-18T06:55:11.099Z,52.50
2018-10-18T06:57:40.038Z,54.30
2018-10-18T07:00:10.697Z,58.67
2018-10-18T07:02:39.015Z,60.43
2018-10-18T07:05:09.595Z,58.37
2018-10-18T07:07:37.959Z,57.33
2018-10-18T07:10:07.104Z,58.53
2018-10-18T07:12:36.371Z,60.67
2018-10-18T07:15:05.563Z,59.90
2018-10-18T07:17:34.444Z,61.23
2018-10-18T07:20:02.840Z,65.33
2018-10-18T07:22:31.451Z,55.30
2018-10-18T07:24:59.973Z,64.67
2018-10-18T07:27:28.371Z,58.93
2018-10-18T07:29:56.853Z,60.93
2018-10-18T07:32:25.494Z,58.03
2018-10-18T07:34:54.009Z,54.10
2018-10-18T07:37:22.247Z,55.23
2018-10-18T07:39:50.742Z,57.27
2018-10-18T07:42:19.199Z,55.50
2018-10-18T07:44:47.420Z,56.07
2018-10-18T07:47:15.777Z,53.93
2018-10-18T07:49:44.167Z,56.87
2018-10-18T07:52:12.508Z,53.20
2018-10-18T07:54:40.837Z,54.27
2018-10-18T07:57:09.202Z,52.33
2018-10-18T07:59:37.486Z,53.30
2018-10-18T08:02:05.842Z,43.43
2018-10-18T08:04:34.729Z,48.87
2018-10-18T08:07:03.104Z,51.43
2018-10-18T08:09:31.521Z,51.10
2018-10-18T08:11:59.866Z,56.37
2018-10-18T08:14:29.613Z,50.80
2018-10-18T08:16:57.941Z,54.40
2018-10-18T08:19:26.216Z,53.37
2018-10-18T08:21:56.612Z,69.67
2018-10-18T08:24:25.464Z,54.47
2018-10-18T08:26:53.783Z,51.57
2018-10-18T08:29:22.317Z,55.27
2018-10-18T08:31:50.661Z,49.73
2018-10-18T08:34:18.920Z,46.73
2018-10-18T08:36:47.243Z,47.43
2018-10-18T08:39:15.604Z,50.07
2018-10-18T08:41:43.898Z,43.40
2018-10-18T08:44:12.257Z,43.33
2018-10-18T08:46:40.578Z,58.00
2018-10-18T08:49:08.972Z,41.80
2018-10-18T08:51:37.176Z,45.70
2018-10-18T08:54:05.463Z,45.73
2018-10-18T08:56:33.758Z,45.60
2018-10-18T08:59:02.148Z,39.23
2018-10-18T09:01:30.447Z,43.17
2018-10-18T09:03:58.763Z,46.13
2018-10-18T09:06:28.357Z,38.73
2018-10-18T09:08:56.800Z,41.53
2018-10-18T09:11:25.123Z,43.97
2018-10-18T09:13:53.358Z,45.27
2018-10-18T09:16:21.778Z,51.00
2018-10-18T09:18:50.125Z,41.50
2018-10-18T09:21:18.351Z,42.07
2018-10-18T09:23:47.630Z,39.90
2018-10-18T09:26:15.888Z,44.57
2018-10-18T09:28:44.289Z,43.80
2018-10-18T09:31:12.664Z,41.03
2018-10-18T09:33:40.862Z,43.87
2018-10-18T09:36:09.153Z,44.77
2018-10-18T09:38:37.692Z,46.83
2018-10-18T09:41:06.642Z,42.67
2018-10-18T09:43:34.895Z,42.77
2018-10-18T09:46:04.032Z,41.03
2018-10-18T09:48:32.677Z,41.70
2018-10-18T09:51:01.392Z,45.00
2018-10-18T09:53:30.804Z,39.27
2018-10-18T09:56:00.280Z,43.67
2018-10-18T09:58:29.054Z,43.57
2018-10-18T10:01:03.005Z,46.60
2018-10-18T10:03:31.265Z,36.83
2018-10-18T10:05:59.622Z,40.97
2018-10-18T10:08:27.978Z,36.30
2018-10-18T10:10:56.323Z,41.60
2018-10-18T10:13:24.734Z,36.17
2018-10-18T10:15:52.932Z,40.73
2018-10-18T10:18:21.242Z,45.90
2018-10-18T10:20:50.373Z,44.70
2018-10-18T10:23:18.682Z,43.20
2018-10-18T10:25:46.962Z,42.10
2018-10-18T10:28:15.215Z,41.70
2018-10-18T10:30:43.498Z,41.30
2018-10-18T10:33:11.815Z,41.57
2018-10-18T10:35:40.168Z,43.37
2018-10-18T10:38:08.382Z,40.70
2018-10-18T10:40:37.719Z,41.87
2018-10-18T10:43:06.340Z,38.93
2018-10-18T10:45:34.630Z,34.20
2018-10-18T10:48:02.966Z,39.90
2018-10-18T10:50:31.357Z,36.90
2018-10-18T10:52:59.616Z,39.60
2018-10-18T10:55:27.871Z,34.17
2018-10-18T10:57:56.227Z,38.87
2018-10-18T11:01:33.327Z,38.20
2018-10-18T11:04:01.734Z,36.87
2018-10-18T11:06:29.981Z,36.93
2018-10-18T11:08:58.323Z,41.80
2018-10-18T11:11:26.627Z,43.37
2018-10-18T11:13:54.893Z,34.87
2018-10-18T11:16:23.193Z,43.70
2018-10-18T11:18:51.490Z,39.50
2018-10-18T11:21:20.136Z,36.73
2018-10-18T11:23:48.312Z,38.07
2018-10-18T11:26:16.673Z,38.77
2018-10-18T11:28:45.717Z,39.40
2018-10-18T11:31:14.090Z,37.43
2018-10-18T11:33:42.388Z,34.10
2018-10-18T11:36:11.146Z,30.90
2018-10-18T11:38:43.104Z,35.40
2018-10-18T11:41:11.526Z,31.30
2018-10-18T11:43:39.882Z,36.53
2018-10-18T11:46:11.172Z,32.47
2018-10-18T11:48:39.401Z,30.60
2018-10-18T11:51:08.330Z,27.37
2018-10-18T11:53:36.615Z,32.77
2018-10-18T11:56:05.082Z,25.97
2018-10-18T11:58:33.603Z,37.93
2018-10-18T12:01:01.935Z,28.10
2018-10-18T12:03:30.216Z,29.97
2018-10-18T12:05:58.629Z,30.47
2018-10-18T12:08:26.907Z,32.30
2018-10-18T12:10:55.260Z,28.23
2018-10-18T12:13:23.571Z,24.20
2018-10-18T12:15:52.032Z,26.27
2018-10-18T12:18:20.313Z,28.17
2018-10-18T12:20:48.620Z,24.93
2018-10-18T12:23:17.797Z,26.90
2018-10-18T12:25:45.934Z,25.93
2018-10-18T12:28:14.830Z,24.70
2018-10-18T12:30:43.116Z,30.60
2018-10-18T12:33:11.414Z,22.70
2018-10-18T12:35:39.723Z,18.77
2018-10-18T12:38:08.077Z,21.60
2018-10-18T12:40:36.407Z,21.13
2018-10-18T12:43:04.651Z,35.60
2018-10-18T12:45:33.392Z,21.53
2018-10-18T12:48:01.925Z,18.97
2018-10-18T12:50:30.102Z,21.67
2018-10-18T12:52:58.459Z,23.80
2018-10-18T12:55:26.726Z,17.30
2018-10-18T12:57:55.202Z,20.00
2018-10-18T13:00:23.466Z,19.67
2018-10-18T13:02:51.802Z,18.67
2018-10-18T13:05:20.166Z,22.97
2018-10-18T13:07:49.438Z,21.57
2018-10-18T13:10:17.729Z,22.87
2018-10-18T13:12:46.084Z,21.40
2018-10-18T13:15:14.397Z,19.70
2018-10-18T13:17:42.673Z,18.17
2018-10-18T13:20:11.528Z,21.23
2018-10-18T13:22:39.996Z,20.57
2018-10-18T13:25:09.316Z,20.33
2018-10-18T13:27:37.945Z,17.27
2018-10-18T13:30:07.645Z,17.97
2018-10-18T13:32:35.774Z,18.47
2018-10-18T13:35:04.085Z,15.00
2018-10-18T13:37:32.406Z,16.93
2018-10-18T13:40:00.686Z,11.97
2018-10-18T13:42:28.973Z,14.27
2018-10-18T13:44:57.192Z,11.67
2018-10-18T13:47:25.446Z,12.07
2018-10-18T13:49:55.679Z,14.33
2018-10-18T13:52:23.964Z,11.63
2018-10-18T13:54:52.298Z,11.27
2018-10-18T13:57:20.585Z,10.03
2018-10-18T14:00:00.313Z,8.40
2018-10-18T14:02:28.637Z,10.33
2018-10-18T14:04:58.006Z,10.83
2018-10-18T14:07:26.384Z,9.40
2018-10-18T14:09:54.619Z,9.70
2018-10-18T14:12:22.888Z,10.27
2018-10-18T14:14:51.151Z,8.80
2018-10-18T14:17:19.647Z,9.90
2018-10-18T14:19:47.720Z,8.87
2018-10-18T14:22:16.064Z,9.40
2018-10-18T14:24:44.351Z,8.87
2018-10-18T14:27:12.618Z,8.90
2018-10-18T14:29:40.982Z,8.50
2018-10-18T14:32:09.315Z,9.53
2018-10-18T14:34:37.508Z,8.00
2018-10-18T14:37:05.806Z,9.83
2018-10-18T14:39:34.166Z,9.07
2018-10-18T14:42:02.374Z,9.53
2018-10-18T14:44:30.693Z,10.67
2018-10-18T14:46:59.002Z,7.10
2018-10-18T14:49:27.166Z,7.80
2018-10-18T14:51:55.466Z,9.73
2018-10-18T14:54:23.765Z,7.00
2018-10-18T14:56:52.042Z,7.00
2018-10-18T14:59:20.869Z,6.53
2018-10-18T15:01:49.150Z,6.03
2018-10-18T15:04:17.440Z,7.27
2018-10-18T15:06:45.703Z,7.17
2018-10-18T15:09:14.033Z,9.73
2018-10-18T15:11:44.521Z,80.23
2018-10-18T15:14:13.174Z,11.50
2018-10-18T15:16:41.386Z,7.00
2018-10-18T15:19:09.642Z,4.53
2018-10-18T15:21:37.987Z,7.70
2018-10-18T15:24:06.292Z,4.70
2018-10-18T15:26:34.720Z,5.50
2018-10-18T15:29:02.851Z,4.43
2018-10-18T15:31:31.090Z,5.67
2018-10-18T15:33:59.295Z,4.07
2018-10-18T15:36:27.579Z,5.03
2018-10-18T15:38:56.124Z,3.37
2018-10-18T15:41:24.087Z,3.77
2018-10-18T15:43:52.432Z,5.83
2018-10-18T15:46:20.835Z,4.03
2018-10-18T15:48:49.113Z,2.97
2018-10-18T15:51:17.522Z,3.23
2018-10-18T15:53:45.636Z,5.87
2018-10-18T15:56:13.878Z,3.30
2018-10-18T15:58:42.113Z,3.40
2018-10-18T16:01:10.453Z,3.47
2018-10-18T16:03:40.506Z,4.70
2018-10-18T16:06:08.837Z,7.40
2018-10-18T16:08:37.374Z,26.83
2018-10-18T16:11:05.733Z,5.80
2018-10-18T16:13:34.835Z,4.33
2018-10-18T16:16:03.130Z,3.20
2018-10-18T16:18:31.599Z,4.97
2018-10-18T16:20:59.930Z,9.53
2018-10-18T16:23:28.307Z,7.17
2018-10-18T16:25:56.722Z,11.30
2018-10-18T16:28:25.054Z,4.53
2018-10-18T16:30:53.352Z,268.50
2018-10-18T16:33:21.805Z,12.03
2018-10-18T16:35:50.378Z,17.03
2018-10-18T16:38:18.811Z,4.73
2018-10-18T16:40:47.319Z,6.53
2018-10-18T16:43:15.683Z,9.03
2018-10-18T16:45:44.080Z,16.47
2018-10-18T16:48:12.424Z,6.97
2018-10-18T16:50:40.771Z,7.67
2018-10-18T16:53:10.027Z,6.43
2018-10-18T16:55:38.399Z,11.13
2018-10-18T16:58:06.814Z,5.73
2018-10-18T17:00:35.126Z,7.00
2018-10-18T17:03:03.926Z,7.37
2018-10-18T17:05:32.335Z,13.43
2018-10-18T17:08:00.755Z,8.60
2018-10-18T17:10:29.083Z,7.40
2018-10-18T17:12:57.807Z,12.73
2018-10-18T17:15:26.863Z,6.40
2018-10-18T17:17:55.234Z,9.00
2018-10-18T17:20:23.631Z,11.23
2018-10-18T17:22:51.906Z,11.60
2018-10-18T17:25:20.290Z,9.17
2018-10-18T17:27:48.705Z,7.97
2018-10-18T17:30:17.474Z,9.87
2018-10-18T17:32:45.666Z,8.03
2018-10-18T17:35:13.983Z,9.77
2018-10-18T17:37:42.318Z,8.43
2018-10-18T17:40:11.054Z,8.90
2018-10-18T17:42:39.434Z,10.37
2018-10-18T17:45:09.030Z,11.80
2018-10-18T17:47:38.862Z,7.20
2018-10-18T17:50:08.043Z,8.57
2018-10-18T17:52:36.633Z,6.73
2018-10-18T17:55:05.618Z,10.20
2018-10-18T17:57:34.131Z,11.27
2018-10-18T18:00:27.027Z,7.23
2018-10-18T18:03:01.691Z,12.63
2018-10-18T18:05:29.981Z,6.47
2018-10-18T18:07:58.247Z,4.97
2018-10-18T18:10:26.532Z,6.37
2018-10-18T18:12:54.824Z,6.70
2018-10-18T18:15:23.068Z,4.93
2018-10-18T18:17:51.514Z,7.47
2018-10-18T18:20:21.051Z,6.33
2018-10-18T18:22:49.701Z,9.03
2018-10-18T18:25:18.774Z,9.00
2018-10-18T18:27:47.436Z,7.83
2018-10-18T18:30:16.296Z,5.90
2018-10-18T18:32:44.855Z,6.93
2018-10-18T18:35:14.350Z,7.53
2018-10-18T18:37:42.593Z,6.30
2018-10-18T18:40:11.242Z,11.00
2018-10-18T18:42:40.255Z,7.63
2018-10-18T18:45:14.094Z,8.63
2018-10-18T18:47:42.457Z,8.00
2018-10-18T18:50:13.328Z,9.67
2018-10-18T18:52:42.072Z,9.00
2018-10-18T18:55:10.792Z,12.30
2018-10-18T18:57:39.561Z,12.93
2018-10-18T19:00:09.521Z,12.13
2018-10-18T19:02:38.125Z,11.07
2018-10-18T19:05:07.180Z,11.20
2018-10-18T19:07:35.601Z,11.37
2018-10-18T19:10:04.087Z,15.60
2018-10-18T19:12:32.317Z,16.53
2018-10-18T19:15:00.695Z,21.83
2018-10-18T19:17:28.919Z,19.67
2018-10-18T19:19:57.225Z,15.70
2018-10-18T19:22:25.501Z,16.03
2018-10-18T19:24:55.547Z,16.63
2018-10-18T19:27:23.826Z,18.17
2018-10-18T19:29:52.120Z,17.43
2018-10-18T19:32:20.363Z,19.63
2018-10-18T19:34:48.647Z,19.93
2018-10-18T19:37:16.946Z,19.07
2018-10-18T19:39:45.214Z,16.70
2018-10-18T19:42:13.485Z,21.73
2018-10-18T19:44:41.775Z,22.67
2018-10-18T19:47:10.123Z,20.40
2018-10-18T19:49:38.429Z,18.43
2018-10-18T19:52:06.805Z,25.10
2018-10-18T19:54:35.035Z,22.00
2018-10-18T19:57:03.354Z,20.27
2018-10-18T19:59:31.658Z,21.50
2018-10-18T20:02:00.103Z,22.47
2018-10-18T20:04:28.381Z,20.43
2018-10-18T20:06:56.650Z,22.83
2018-10-18T20:09:25.942Z,55.70
2018-10-18T20:11:54.201Z,34.53
2018-10-18T20:14:22.505Z,19.90
2018-10-18T20:16:50.767Z,20.17
2018-10-18T20:19:19.045Z,19.63
2018-10-18T20:21:47.764Z,22.10
2018-10-18T20:24:16.028Z,22.47
2018-10-18T20:26:44.361Z,26.87
2018-10-18T20:29:12.630Z,21.33
2018-10-18T20:31:47.289Z,21.30
2018-10-18T20:34:15.771Z,19.13
2018-10-18T20:36:43.997Z,23.03
2018-10-18T20:39:12.365Z,21.10
2018-10-18T20:41:41.426Z,19.27
2018-10-18T20:44:09.673Z,22.37
2018-10-18T20:46:39.540Z,20.23
2018-10-18T20:49:07.719Z,19.33
2018-10-18T20:51:35.959Z,19.80
2018-10-18T20:54:04.228Z,20.77
2018-10-18T20:56:32.511Z,23.87
2018-10-18T20:59:00.799Z,24.33
2018-10-18T21:01:29.377Z,23.67
2018-10-18T21:04:01.777Z,19.40
2018-10-18T21:06:30.254Z,21.17
2018-10-18T21:08:58.293Z,25.47
2018-10-18T21:11:26.571Z,20.80
2018-10-18T21:13:55.072Z,20.20
2018-10-18T21:16:23.387Z,20.37
2018-10-18T21:18:51.697Z,22.47
2018-10-18T21:21:19.963Z,20.83
2018-10-18T21:23:48.219Z,22.63
2018-10-18T21:26:22.959Z,23.97
2018-10-18T21:28:51.235Z,19.37
2018-10-18T21:31:19.600Z,25.53
2018-10-18T21:33:47.827Z,20.57
2018-10-18T21:36:16.118Z,20.37
2018-10-18T21:38:44.408Z,21.33
2018-10-18T21:41:12.825Z,20.13
2018-10-18T21:43:41.197Z,18.13
2018-10-18T21:46:09.546Z,20.23
2018-10-18T21:48:38.972Z,22.80
2018-10-18T21:51:07.320Z,19.33
2018-10-18T21:53:35.514Z,20.47
2018-10-18T21:56:03.944Z,20.70
2018-10-18T21:58:32.198Z,18.97
2018-10-18T22:01:00.414Z,18.93
2018-10-18T22:03:28.691Z,22.60
2018-10-18T22:05:56.928Z,19.50
2018-10-18T22:08:25.182Z,20.50
2018-10-18T22:10:53.462Z,22.90
2018-10-18T22:13:21.762Z,20.57
2018-10-18T22:15:50.048Z,19.90
2018-10-18T22:18:18.351Z,19.27
2018-10-18T22:20:46.565Z,22.33
2018-10-18T22:23:14.834Z,20.33
2018-10-18T22:25:43.115Z,17.37
2018-10-18T22:28:11.423Z,18.70
2018-10-18T22:30:39.714Z,19.83
2018-10-18T22:33:07.980Z,22.10
2018-10-18T22:35:36.210Z,18.60
2018-10-18T22:38:04.515Z,24.57
2018-10-18T22:40:32.795Z,23.10
2018-10-18T22:43:01.154Z,19.83
2018-10-18T22:45:29.481Z,23.20
2018-10-18T22:47:57.719Z,20.33
2018-10-18T22:50:26.480Z,20.47
2018-10-18T22:52:54.806Z,25.03
2018-10-18T22:55:23.022Z,17.77
2018-10-18T22:57:51.258Z,19.27
2018-10-18T23:00:19.466Z,22.03
2018-10-18T23:02:47.798Z,20.43
2018-10-18T23:05:16.132Z,24.87
2018-10-18T23:07:44.312Z,21.00
2018-10-18T23:10:12.542Z,19.40
2018-10-18T23:12:40.846Z,21.00
2018-10-18T23:15:09.929Z,18.57
2018-10-18T23:17:38.548Z,20.47
2018-10-18T23:20:07.765Z,19.47
2018-10-18T23:22:36.021Z,18.23
2018-10-18T23:25:04.271Z,17.43
2018-10-18T23:27:32.763Z,16.17
2018-10-18T23:30:01.007Z,24.10
2018-10-18T23:32:29.314Z,20.10
2018-10-18T23:34:57.573Z,23.07
2018-10-18T23:37:25.808Z,14.93
2018-10-18T23:39:54.032Z,14.43
2018-10-18T23:42:22.252Z,15.50
2018-10-18T23:44:50.455Z,14.83
2018-10-18T23:47:18.705Z,14.40
2018-10-18T23:49:46.980Z,18.33
2018-10-18T23:52:15.234Z,13.83
2018-10-18T23:54:43.462Z,15.33
2018-10-18T23:57:11.740Z,13.90
2018-10-18T23:59:40.562Z,16.63
